createdAt,value
2023-01-31T00:01:40.226Z,-0.13
2023-01-31T00:04:11.547Z,-0.09
2023-01-31T00:06:42.464Z,-0.09
2023-01-31T00:09:11.088Z,0.16
2023-01-31T00:11:38.508Z,0.05
2023-01-31T00:14:07.011Z,0.25
2023-01-31T00:16:34.019Z,-0.21
2023-01-31T00:19:00.845Z,-0.24
2023-01-31T00:21:29.926Z,-0.35
2023-01-31T00:23:58.402Z,0.07
2023-01-31T00:26:27.418Z,0.20
2023-01-31T00:28:55.755Z,0.36
2023-01-31T00:31:24.616Z,0.47
2023-01-31T00:33:53.480Z,0.33
2023-01-31T00:36:28.171Z,0.36
2023-01-31T00:38:57.337Z,0.35
2023-01-31T00:41:26.145Z,0.22
2023-01-31T00:43:55.786Z,0.29
2023-01-31T00:46:23.837Z,0.27
2023-01-31T00:48:51.000Z,0.35
2023-01-31T00:51:18.935Z,0.17
2023-01-31T00:53:46.068Z,-0.12
2023-01-31T00:56:16.546Z,0.07
2023-01-31T00:58:44.265Z,0.19
2023-01-31T01:01:17.591Z,0.19
2023-01-31T01:03:45.732Z,0.29
2023-01-31T01:06:13.891Z,0.16
2023-01-31T01:08:42.335Z,-0.41
2023-01-31T01:11:12.358Z,-0.14
2023-01-31T01:13:39.669Z,-0.04
2023-01-31T01:16:19.026Z,-0.36
2023-01-31T01:18:48.364Z,-0.10
2023-01-31T01:21:21.652Z,0.10
2023-01-31T01:23:49.562Z,0.56
2023-01-31T01:26:28.931Z,0.03
2023-01-31T01:28:57.715Z,-0.12
2023-01-31T01:31:30.847Z,-0.01
2023-01-31T01:34:01.830Z,0.39
2023-01-31T01:36:29.324Z,0.23
2023-01-31T01:38:56.650Z,-0.12
2023-01-31T01:41:23.782Z,0.28
2023-01-31T01:43:53.159Z,0.18
2023-01-31T01:46:32.895Z,0.30
2023-01-31T01:49:06.137Z,0.47
2023-01-31T01:51:35.282Z,0.68
2023-01-31T01:54:09.240Z,0.31
2023-01-31T01:56:39.847Z,0.50
2023-01-31T01:59:18.667Z,0.80
2023-01-31T02:01:48.275Z,0.57
2023-01-31T02:04:21.036Z,0.51
2023-01-31T02:06:48.198Z,0.58
2023-01-31T02:09:33.432Z,0.59
2023-01-31T02:12:00.906Z,0.77
2023-01-31T02:14:42.596Z,0.61
2023-01-31T02:17:14.876Z,0.51
2023-01-31T02:20:01.496Z,0.67
2023-01-31T02:22:39.803Z,0.55
2023-01-31T02:25:30.879Z,0.35
2023-01-31T02:28:24.645Z,0.61
2023-01-31T02:31:16.076Z,0.37
2023-01-31T02:33:45.596Z,0.60
2023-01-31T02:37:01.458Z,0.53
2023-01-31T02:39:58.970Z,0.58
2023-01-31T02:43:19.485Z,0.67
2023-01-31T02:45:46.454Z,0.25
2023-01-31T02:48:42.674Z,0.32
2023-01-31T02:51:20.573Z,0.28
2023-01-31T02:54:00.801Z,0.16
2023-01-31T02:56:31.763Z,0.13
2023-01-31T02:59:05.966Z,0.15
2023-01-31T03:01:40.628Z,0.38
2023-01-31T03:04:16.391Z,0.41
2023-01-31T03:07:00.041Z,0.43
2023-01-31T03:09:36.917Z,0.50
2023-01-31T03:12:06.753Z,0.59
2023-01-31T03:14:47.602Z,0.79
2023-01-31T03:17:34.639Z,0.83
2023-01-31T03:20:22.267Z,0.81
2023-01-31T03:22:53.743Z,0.61
2023-01-31T03:25:36.941Z,0.53
2023-01-31T03:28:18.648Z,0.21
2023-01-31T03:31:00.092Z,0.32
2023-01-31T03:33:32.745Z,0.40
2023-01-31T03:36:17.830Z,0.47
2023-01-31T03:39:11.921Z,0.43
2023-01-31T03:42:20.388Z,0.24
2023-01-31T03:44:47.279Z,0.50
2023-01-31T03:47:50.236Z,-0.05
2023-01-31T03:50:26.839Z,0.31
2023-01-31T03:52:58.163Z,0.23
2023-01-31T03:55:37.335Z,-0.05
2023-01-31T03:58:06.675Z,0.03
2023-01-31T04:03:25.262Z,0.48
2023-01-31T04:05:52.269Z,0.59
2023-01-31T04:08:19.405Z,0.35
2023-01-31T04:10:46.475Z,0.20
2023-01-31T04:13:13.849Z,0.41
2023-01-31T04:15:40.731Z,0.44
2023-01-31T04:18:07.825Z,0.92
2023-01-31T04:20:34.820Z,0.71
2023-01-31T04:23:01.640Z,0.73
2023-01-31T04:25:30.479Z,0.75
2023-01-31T04:27:58.736Z,0.54
2023-01-31T04:30:25.571Z,0.49
2023-01-31T04:32:52.470Z,0.56
2023-01-31T04:35:19.557Z,0.99
2023-01-31T04:37:46.641Z,0.72
2023-01-31T04:40:16.948Z,0.36
2023-01-31T04:42:43.980Z,0.75
2023-01-31T04:45:11.335Z,0.54
2023-01-31T04:47:38.535Z,0.81
2023-01-31T04:50:05.824Z,0.74
2023-01-31T04:52:33.037Z,0.76
2023-01-31T04:55:00.316Z,1.03
2023-01-31T04:57:27.057Z,1.03
2023-01-31T04:59:53.876Z,0.53
2023-01-31T05:02:23.684Z,0.62
2023-01-31T05:04:53.146Z,0.74
2023-01-31T05:07:20.298Z,0.82
2023-01-31T05:09:52.231Z,0.60
2023-01-31T05:12:19.107Z,0.68
2023-01-31T05:17:41.459Z,0.86
2023-01-31T05:20:11.162Z,1.03
2023-01-31T05:22:44.488Z,0.86
2023-01-31T05:25:13.933Z,0.93
2023-01-31T05:27:41.754Z,0.86
2023-01-31T05:30:09.987Z,0.87
2023-01-31T05:32:37.959Z,0.69
2023-01-31T05:35:14.597Z,0.87
2023-01-31T05:37:44.196Z,0.75
2023-01-31T05:40:13.049Z,0.97
2023-01-31T05:42:40.858Z,1.12
2023-01-31T05:45:11.729Z,0.98
2023-01-31T05:47:38.838Z,1.07
2023-01-31T05:50:06.639Z,1.09
2023-01-31T05:52:36.080Z,0.99
2023-01-31T05:55:13.531Z,0.96
2023-01-31T05:57:40.442Z,1.10
2023-01-31T06:00:07.852Z,1.24
2023-01-31T06:02:34.890Z,1.04
2023-01-31T06:05:01.877Z,1.44
2023-01-31T06:07:28.889Z,1.84
2023-01-31T06:09:55.913Z,1.93
2023-01-31T06:12:22.944Z,2.16
2023-01-31T06:14:55.691Z,2.30
2023-01-31T06:17:24.251Z,2.39
2023-01-31T06:19:54.031Z,2.39
2023-01-31T06:22:36.476Z,2.38
2023-01-31T06:25:03.547Z,2.42
2023-01-31T06:27:38.382Z,2.49
2023-01-31T06:30:05.507Z,2.59
2023-01-31T06:32:34.834Z,2.61
2023-01-31T06:35:01.646Z,2.45
2023-01-31T06:37:28.533Z,2.37
2023-01-31T06:39:55.644Z,2.40
2023-01-31T06:45:03.906Z,2.72
2023-01-31T06:47:31.007Z,2.67
2023-01-31T06:50:00.845Z,2.54
2023-01-31T06:52:27.621Z,2.61
2023-01-31T06:54:55.068Z,2.64
2023-01-31T06:57:21.968Z,2.80
2023-01-31T06:59:51.038Z,2.85
2023-01-31T07:02:18.374Z,2.95
2023-01-31T07:04:45.188Z,2.78
2023-01-31T07:07:12.370Z,2.78
2023-01-31T07:09:39.649Z,2.99
2023-01-31T07:12:06.607Z,3.01
2023-01-31T07:14:33.474Z,3.15
2023-01-31T07:17:00.648Z,3.12
2023-01-31T07:19:27.568Z,3.12
2023-01-31T07:21:54.520Z,3.33
2023-01-31T07:24:21.651Z,3.30
2023-01-31T07:26:56.965Z,3.68
2023-01-31T07:29:24.092Z,4.27
2023-01-31T07:31:51.417Z,5.05
2023-01-31T07:34:19.081Z,4.80
2023-01-31T07:36:49.559Z,4.35
2023-01-31T07:39:21.907Z,4.14
2023-01-31T07:41:59.244Z,4.00
2023-01-31T07:44:33.212Z,3.95
2023-01-31T07:47:00.419Z,3.65
2023-01-31T07:49:28.542Z,3.64
2023-01-31T07:51:55.464Z,3.57
2023-01-31T07:54:22.981Z,3.62
2023-01-31T07:56:49.827Z,3.52
2023-01-31T07:59:17.769Z,3.41
2023-01-31T08:02:04.271Z,3.27
2023-01-31T08:04:31.071Z,3.24
2023-01-31T08:06:59.809Z,3.25
2023-01-31T08:09:26.948Z,3.43
2023-01-31T08:11:58.138Z,3.50
2023-01-31T08:14:52.707Z,3.62
2023-01-31T08:17:28.445Z,3.75
2023-01-31T08:19:55.742Z,3.69
2023-01-31T08:22:22.547Z,3.78
2023-01-31T08:24:51.689Z,3.64
2023-01-31T08:27:18.859Z,3.55
2023-01-31T08:29:46.202Z,3.57
2023-01-31T08:32:13.071Z,3.60
2023-01-31T08:34:40.123Z,3.47
2023-01-31T08:37:06.986Z,3.55
2023-01-31T08:39:33.911Z,3.50
2023-01-31T08:42:01.655Z,3.52
2023-01-31T08:44:36.935Z,3.53
2023-01-31T08:47:06.207Z,3.57
2023-01-31T08:49:36.489Z,3.67
2023-01-31T08:52:03.377Z,3.66
2023-01-31T08:54:31.381Z,3.74
2023-01-31T08:56:58.594Z,3.73
2023-01-31T08:59:25.475Z,3.92
2023-01-31T09:01:52.649Z,4.09
2023-01-31T09:04:19.784Z,4.14
2023-01-31T09:06:57.341Z,4.21
2023-01-31T09:09:26.527Z,4.26
2023-01-31T09:11:53.620Z,4.37
2023-01-31T09:14:20.771Z,4.25
2023-01-31T09:16:47.974Z,4.44
2023-01-31T09:19:15.127Z,4.57
2023-01-31T09:21:42.535Z,4.79
2023-01-31T09:24:10.332Z,5.02
2023-01-31T09:26:39.266Z,4.93
2023-01-31T09:29:06.306Z,5.20
2023-01-31T09:31:33.495Z,5.56
2023-01-31T09:34:02.244Z,5.81
2023-01-31T09:36:30.218Z,6.14
2023-01-31T09:38:57.803Z,5.80
2023-01-31T09:41:37.518Z,6.15
2023-01-31T09:44:11.088Z,6.40
2023-01-31T09:46:47.952Z,6.66
2023-01-31T09:49:21.011Z,6.85
2023-01-31T09:51:55.379Z,6.36
2023-01-31T09:54:32.030Z,6.27
2023-01-31T09:57:08.770Z,6.17
2023-01-31T10:00:35.496Z,5.72
2023-01-31T10:03:19.734Z,5.49
2023-01-31T10:05:58.690Z,5.44
2023-01-31T10:08:31.798Z,5.05
2023-01-31T10:11:06.783Z,5.15
2023-01-31T10:13:49.841Z,5.28
2023-01-31T10:16:39.380Z,5.16
2023-01-31T10:19:25.698Z,5.17
2023-01-31T10:21:58.683Z,5.30
2023-01-31T10:24:41.440Z,5.05
2023-01-31T10:27:19.585Z,5.22
2023-01-31T10:29:58.877Z,5.29
2023-01-31T10:32:35.297Z,5.52
2023-01-31T10:35:24.790Z,5.42
2023-01-31T10:37:58.211Z,5.33
2023-01-31T10:40:42.139Z,5.49
2023-01-31T10:43:21.985Z,5.63
2023-01-31T10:45:48.863Z,5.60
2023-01-31T10:48:19.936Z,5.60
2023-01-31T10:51:08.083Z,5.66
2023-01-31T10:53:37.971Z,5.89
2023-01-31T10:56:17.759Z,5.82
2023-01-31T10:58:47.034Z,5.79
2023-01-31T11:01:15.334Z,5.48
2023-01-31T11:03:52.732Z,5.34
2023-01-31T11:06:22.929Z,5.18
2023-01-31T11:09:01.894Z,5.27
2023-01-31T11:12:08.559Z,4.98
2023-01-31T11:15:00.434Z,4.62
2023-01-31T11:17:38.028Z,4.57
2023-01-31T11:20:07.017Z,4.75
2023-01-31T11:22:37.840Z,4.91
2023-01-31T11:25:06.450Z,4.69
2023-01-31T11:27:44.170Z,4.94
2023-01-31T11:30:31.385Z,4.75
2023-01-31T11:32:59.217Z,5.01
2023-01-31T11:35:29.771Z,5.12
2023-01-31T11:38:04.842Z,4.95
2023-01-31T11:40:44.828Z,5.06
2023-01-31T11:43:15.333Z,4.65
2023-01-31T11:45:53.934Z,4.83
2023-01-31T11:51:10.181Z,4.66
2023-01-31T11:53:47.009Z,4.67
2023-01-31T11:56:20.615Z,4.77
2023-01-31T11:58:53.230Z,5.09
2023-01-31T12:01:22.910Z,4.87
2023-01-31T12:04:02.619Z,4.45
2023-01-31T12:06:30.655Z,4.54
2023-01-31T12:08:59.874Z,4.26
2023-01-31T12:11:33.736Z,4.19
2023-01-31T12:14:15.332Z,4.27
2023-01-31T12:16:44.437Z,4.31
2023-01-31T12:19:22.355Z,4.16
2023-01-31T12:22:40.472Z,3.92
2023-01-31T12:25:50.136Z,4.32
2023-01-31T12:28:44.477Z,4.38
2023-01-31T12:31:29.482Z,4.62
2023-01-31T12:34:08.613Z,4.56
2023-01-31T12:36:44.313Z,4.55
2023-01-31T12:39:35.872Z,4.61
2023-01-31T12:42:46.268Z,5.09
2023-01-31T12:46:07.576Z,4.85
2023-01-31T12:48:55.388Z,4.98
2023-01-31T12:51:40.304Z,5.18
2023-01-31T12:54:16.188Z,5.32
2023-01-31T12:56:56.109Z,5.09
2023-01-31T12:59:35.325Z,4.98
2023-01-31T13:02:08.354Z,4.92
2023-01-31T13:04:39.506Z,5.07
2023-01-31T13:07:15.231Z,4.96
2023-01-31T13:09:42.631Z,4.57
2023-01-31T13:12:17.094Z,4.40
2023-01-31T13:14:51.844Z,4.69
2023-01-31T13:17:24.558Z,4.84
2023-01-31T13:19:57.639Z,4.83
2023-01-31T13:22:33.564Z,4.73
2023-01-31T13:25:18.561Z,4.67
2023-01-31T13:27:57.023Z,5.03
2023-01-31T13:30:35.878Z,5.09
2023-01-31T13:33:22.063Z,5.21
2023-01-31T13:35:57.861Z,5.45
2023-01-31T13:38:31.837Z,5.60
2023-01-31T13:41:00.662Z,5.60
2023-01-31T13:43:27.577Z,5.62
2023-01-31T13:45:59.715Z,5.51
2023-01-31T13:48:37.508Z,5.69
2023-01-31T13:51:19.519Z,5.58
2023-01-31T13:53:51.596Z,5.30
2023-01-31T13:56:26.286Z,5.13
2023-01-31T13:58:55.938Z,5.12
2023-01-31T14:01:35.545Z,5.22
2023-01-31T14:04:13.775Z,5.29
2023-01-31T14:06:55.750Z,5.09
2023-01-31T14:09:39.567Z,4.97
2023-01-31T14:12:18.833Z,4.94
2023-01-31T14:14:46.944Z,4.85
2023-01-31T14:17:36.807Z,5.05
2023-01-31T14:20:24.967Z,5.11
2023-01-31T14:23:32.690Z,5.15
2023-01-31T14:25:59.712Z,5.19
2023-01-31T14:28:27.171Z,5.22
2023-01-31T14:30:56.153Z,4.99
2023-01-31T14:33:47.274Z,4.66
2023-01-31T14:36:45.089Z,4.52
2023-01-31T14:39:46.906Z,4.54
2023-01-31T14:43:12.467Z,4.65
2023-01-31T14:45:58.109Z,4.69
2023-01-31T14:48:57.481Z,4.78
2023-01-31T14:52:01.792Z,4.69
2023-01-31T14:54:31.865Z,4.89
2023-01-31T14:57:18.890Z,4.85
2023-01-31T15:00:14.628Z,4.81
2023-01-31T15:03:06.960Z,4.89
2023-01-31T15:05:47.201Z,4.76
2023-01-31T15:08:16.738Z,4.75
2023-01-31T15:11:03.389Z,4.76
2023-01-31T15:13:52.891Z,4.80
2023-01-31T15:16:48.990Z,4.67
2023-01-31T15:19:24.629Z,4.78
2023-01-31T15:24:46.115Z,4.45
2023-01-31T15:27:51.571Z,4.47
2023-01-31T15:30:21.118Z,4.39
2023-01-31T15:32:56.842Z,4.43
2023-01-31T15:36:05.571Z,4.47
2023-01-31T15:38:49.037Z,4.40
2023-01-31T15:41:19.115Z,4.28
2023-01-31T15:44:29.433Z,4.29
2023-01-31T15:46:58.405Z,4.28
2023-01-31T15:49:40.152Z,4.30
2023-01-31T15:52:19.559Z,4.36
2023-01-31T15:54:56.405Z,4.32
2023-01-31T15:57:38.652Z,4.34
2023-01-31T16:00:06.396Z,4.26
2023-01-31T16:02:33.791Z,4.34
2023-01-31T16:05:00.926Z,4.26
2023-01-31T16:07:31.753Z,4.19
2023-01-31T16:10:03.973Z,4.28
2023-01-31T16:12:41.804Z,4.21
2023-01-31T16:15:21.262Z,4.25
2023-01-31T16:20:44.409Z,4.35
2023-01-31T16:23:30.445Z,4.29
2023-01-31T16:26:06.454Z,4.39
2023-01-31T16:29:01.714Z,4.27
2023-01-31T16:31:40.753Z,4.17
2023-01-31T16:34:24.033Z,4.08
2023-01-31T16:36:51.029Z,4.09
2023-01-31T16:39:42.053Z,4.10
2023-01-31T16:42:23.760Z,4.13
2023-01-31T16:44:51.423Z,4.08
2023-01-31T16:47:33.423Z,4.17
2023-01-31T16:50:32.861Z,4.14
2023-01-31T16:53:15.498Z,4.12
2023-01-31T16:55:42.462Z,4.08
2023-01-31T16:58:10.850Z,3.93
2023-01-31T17:00:43.883Z,3.95
2023-01-31T17:03:19.599Z,3.96
2023-01-31T17:05:47.661Z,3.85
2023-01-31T17:08:21.112Z,3.82
2023-01-31T17:10:55.118Z,3.79
2023-01-31T17:13:26.919Z,3.66
2023-01-31T17:18:41.446Z,3.78
2023-01-31T17:21:12.719Z,3.59
2023-01-31T17:23:42.864Z,3.55
2023-01-31T17:26:25.039Z,3.59
2023-01-31T17:29:01.476Z,3.54
2023-01-31T17:31:31.517Z,3.69
2023-01-31T17:34:03.121Z,3.56
2023-01-31T17:36:32.491Z,3.55
2023-01-31T17:39:09.767Z,3.52
2023-01-31T17:41:41.573Z,3.65
2023-01-31T17:44:12.994Z,3.72
2023-01-31T17:46:43.988Z,3.64
2023-01-31T17:49:11.726Z,3.65
2023-01-31T17:51:41.041Z,3.54
2023-01-31T17:54:08.282Z,3.58
2023-01-31T17:56:35.141Z,3.62
2023-01-31T17:59:02.336Z,3.58
2023-01-31T18:01:29.857Z,3.59
2023-01-31T18:03:58.276Z,3.50
2023-01-31T18:06:25.382Z,3.57
2023-01-31T18:08:56.438Z,3.59
2023-01-31T18:11:23.422Z,3.50
2023-01-31T18:13:50.935Z,3.33
2023-01-31T18:16:30.765Z,3.41
2023-01-31T18:18:58.007Z,3.30
2023-01-31T18:24:34.169Z,3.30
2023-01-31T18:27:01.699Z,3.27
2023-01-31T18:29:28.895Z,3.29
2023-01-31T18:31:57.909Z,3.20
2023-01-31T18:34:25.618Z,3.18
2023-01-31T18:36:52.605Z,3.24
2023-01-31T18:39:19.541Z,3.07
2023-01-31T18:44:37.104Z,3.07
2023-01-31T18:47:04.183Z,3.09
2023-01-31T18:49:36.242Z,3.15
2023-01-31T18:52:03.593Z,3.01
2023-01-31T18:54:30.653Z,3.08
2023-01-31T18:56:57.483Z,3.05
2023-01-31T18:59:24.363Z,3.31
2023-01-31T19:01:54.367Z,3.20
2023-01-31T19:04:23.148Z,3.16
2023-01-31T19:06:52.220Z,3.30
2023-01-31T19:09:19.766Z,3.05
2023-01-31T19:11:46.912Z,3.13
2023-01-31T19:14:14.914Z,3.08
2023-01-31T19:16:42.664Z,3.15
2023-01-31T19:19:10.707Z,3.10
2023-01-31T19:21:38.939Z,3.22
2023-01-31T19:24:08.324Z,3.43
2023-01-31T19:26:35.959Z,3.33
2023-01-31T19:29:03.837Z,3.28
2023-01-31T19:31:32.628Z,3.28
2023-01-31T19:34:02.536Z,3.28
2023-01-31T19:36:32.742Z,3.17
2023-01-31T19:39:01.319Z,3.14
2023-01-31T19:41:29.237Z,3.09
2023-01-31T19:43:58.115Z,3.02
2023-01-31T19:46:27.727Z,3.21
2023-01-31T19:49:11.278Z,3.08
2023-01-31T19:51:55.762Z,3.27
2023-01-31T19:54:23.323Z,3.35
2023-01-31T19:56:50.611Z,3.24
2023-01-31T19:59:19.980Z,3.15
2023-01-31T20:01:48.828Z,3.32
2023-01-31T20:04:23.166Z,3.05
2023-01-31T20:09:40.391Z,3.25
2023-01-31T20:12:18.639Z,3.20
2023-01-31T20:14:45.547Z,3.38
2023-01-31T20:17:12.733Z,3.27
2023-01-31T20:19:58.170Z,3.17
2023-01-31T20:22:25.374Z,3.16
2023-01-31T20:24:53.888Z,3.37
2023-01-31T20:27:20.750Z,3.23
2023-01-31T20:29:47.859Z,3.21
2023-01-31T20:32:17.360Z,3.22
2023-01-31T20:34:44.788Z,3.25
2023-01-31T20:37:12.029Z,3.32
2023-01-31T20:39:39.329Z,2.94
2023-01-31T20:42:15.914Z,2.82
2023-01-31T20:44:43.845Z,3.01
2023-01-31T20:47:10.751Z,2.90
2023-01-31T20:49:38.000Z,2.94
2023-01-31T20:52:04.980Z,2.87
2023-01-31T20:54:41.317Z,2.78
2023-01-31T20:57:13.394Z,2.69
2023-01-31T20:59:40.154Z,2.66
2023-01-31T21:02:07.315Z,2.80
2023-01-31T21:04:34.272Z,2.84
2023-01-31T21:07:04.927Z,2.79
2023-01-31T21:09:31.710Z,2.79
2023-01-31T21:11:58.642Z,2.71
2023-01-31T21:14:26.012Z,2.67
2023-01-31T21:16:52.706Z,2.66
2023-01-31T21:19:19.723Z,2.74
2023-01-31T21:21:46.466Z,2.79
2023-01-31T21:24:13.552Z,2.90
2023-01-31T21:26:40.658Z,2.75
2023-01-31T21:29:08.980Z,2.81
2023-01-31T21:31:36.128Z,2.54
2023-01-31T21:34:06.720Z,2.83
2023-01-31T21:36:58.105Z,3.04
2023-01-31T21:39:25.262Z,2.79
2023-01-31T21:42:11.443Z,2.75
2023-01-31T21:44:42.622Z,2.45
2023-01-31T21:47:20.786Z,2.59
2023-01-31T21:49:47.896Z,2.40
2023-01-31T21:52:15.959Z,2.41
2023-01-31T21:54:46.288Z,1.93
2023-01-31T21:57:16.098Z,1.99
2023-01-31T21:59:45.843Z,1.86
2023-01-31T22:02:16.284Z,2.06
2023-01-31T22:05:02.959Z,2.18
2023-01-31T22:07:30.844Z,2.35
2023-01-31T22:10:03.152Z,2.38
2023-01-31T22:12:30.378Z,2.44
2023-01-31T22:14:57.165Z,2.52
2023-01-31T22:17:24.540Z,5.95
2023-01-31T22:19:51.271Z,6.92
2023-01-31T22:22:22.019Z,4.53
2023-01-31T22:25:01.091Z,3.21
2023-01-31T22:27:34.244Z,3.03
2023-01-31T22:33:39.108Z,2.96
2023-01-31T22:36:07.488Z,2.86
2023-01-31T22:38:37.418Z,2.78
2023-01-31T22:41:07.469Z,2.87
2023-01-31T22:43:42.879Z,2.78
2023-01-31T22:46:13.244Z,2.76
2023-01-31T22:48:40.152Z,2.72
2023-01-31T22:51:11.618Z,2.58
2023-01-31T22:53:39.139Z,2.46
2023-01-31T22:56:10.189Z,2.50
2023-01-31T22:58:37.327Z,2.75
2023-01-31T23:01:11.811Z,2.97
2023-01-31T23:03:38.846Z,2.75
2023-01-31T23:06:05.882Z,2.80
2023-01-31T23:08:32.711Z,2.56
2023-01-31T23:11:08.953Z,2.31
2023-01-31T23:13:36.171Z,2.61
2023-01-31T23:16:04.640Z,2.39
2023-01-31T23:18:32.158Z,2.48
2023-01-31T23:21:09.638Z,2.52
2023-01-31T23:23:37.002Z,2.31
2023-01-31T23:26:10.617Z,2.36
2023-01-31T23:28:37.880Z,2.39
2023-01-31T23:31:04.973Z,2.33
2023-01-31T23:33:32.108Z,2.43
2023-01-31T23:35:59.182Z,2.52
2023-01-31T23:38:28.576Z,2.50
2023-01-31T23:40:55.493Z,2.59
2023-01-31T23:43:26.857Z,2.54
2023-01-31T23:45:57.594Z,2.66
2023-01-31T23:48:24.561Z,2.70
2023-01-31T23:50:51.316Z,2.63
2023-01-31T23:53:18.081Z,2.74
2023-01-31T23:55:51.710Z,2.74
2023-01-31T23:58:41.668Z,2.69
